Time;durP1;ratioP1;P1;durP2;ratioP2;P2;SDS_P1;SDS_P2;PMS_P1;PMS_P2;Temp;Humidity;BMP_temperature;BMP_pressure;BME280_temperature;BME280_humidity;BME280_pressure;Samples;Min_cycle;Max_cycle;Signal;HPM_P1;HPM_P2
2023/09/15 00:00:20;;;;;;;0.93;0.93;;;;;;;20.86;nan;61972.44;5092379;28;20174;-68
2023/09/15 00:02:58;;;;;;;0.95;0.90;;;;;;;20.93;nan;61816.75;5092435;28;20190;-69
2023/09/15 00:05:26;;;;;;;1.02;1.02;;;;;;;20.91;nan;61686.63;5092239;28;20173;-69
2023/09/15 00:07:52;;;;;;;0.90;0.90;;;;;;;20.90;nan;61685.50;5092178;28;20264;-70
2023/09/15 00:10:21;;;;;;;0.85;0.85;;;;;;;20.98;nan;61746.53;5073490;28;20229;-68
2023/09/15 00:12:46;;;;;;;0.70;0.70;;;;;;;20.85;nan;61851.84;5092015;28;20399;-68
2023/09/15 00:15:12;;;;;;;1.80;1.42;;;;;;;21.10;nan;61773.13;5092090;28;20236;-67
2023/09/15 00:17:40;;;;;;;4.22;1.15;;;;;;;21.12;nan;61856.53;5091424;28;20182;-68
2023/09/15 00:20:13;;;;;;;1.48;1.23;;;;;;;21.14;nan;61769.91;5091173;28;20655;-68
2023/09/15 00:22:49;;;;;;;0.77;0.77;;;;;;;21.19;nan;61858.16;5097678;28;20562;-69
2023/09/15 00:25:50;;;;;;;1.05;1.05;;;;;;;21.17;nan;61741.56;5087497;28;20184;-68
2023/09/15 00:28:16;;;;;;;1.10;1.10;;;;;;;21.00;nan;61629.84;5084983;28;20192;-69
2023/09/15 00:30:41;;;;;;;1.83;1.25;;;;;;;21.20;nan;61849.47;5110634;28;20184;-69
2023/09/15 00:33:07;;;;;;;1.30;1.05;;;;;;;21.23;nan;61756.16;5108456;28;20204;-69
2023/09/15 00:35:32;;;;;;;1.27;1.20;;;;;;;20.97;nan;61748.56;5091599;28;20180;-69
2023/09/15 00:37:58;;;;;;;0.93;0.93;;;;;;;20.98;nan;61767.31;5091496;28;20611;-69
2023/09/15 00:40:24;;;;;;;1.00;0.90;;;;;;;21.03;nan;61854.09;5090762;28;20169;-68
2023/09/15 00:42:51;;;;;;;0.77;0.77;;;;;;;20.89;nan;61562.31;5091148;28;20181;-69
2023/09/15 00:45:21;;;;;;;0.93;0.93;;;;;;;21.18;nan;61942.78;5107165;28;20176;-68
2023/09/15 00:47:53;;;;;;;0.85;0.85;;;;;;;21.10;nan;61651.00;5094702;28;20222;-68
2023/09/15 00:50:31;;;;;;;3.05;1.98;;;;;;;21.07;nan;61746.91;5093195;28;20185;-68
2023/09/15 00:53:00;;;;;;;0.80;0.80;;;;;;;21.30;nan;61790.09;5097290;28;20250;-69
2023/09/15 00:55:27;;;;;;;0.90;0.90;;;;;;;21.22;nan;61747.25;5075915;28;20193;-69
2023/09/15 00:57:54;;;;;;;1.98;1.52;;;;;;;20.93;nan;61640.13;5096756;28;20173;-69
2023/09/15 01:00:20;;;;;;;0.90;0.90;;;;;;;21.18;nan;61880.44;5107859;28;20179;-69
2023/09/15 01:02:47;;;;;;;0.73;0.73;;;;;;;21.05;nan;61874.53;5096193;28;20177;-68
2023/09/15 01:05:20;;;;;;;0.82;0.82;;;;;;;21.15;nan;61735.22;5102088;28;20251;-69
2023/09/15 01:07:47;;;;;;;2.33;0.82;;;;;;;21.19;nan;61775.00;5094875;28;20169;-69
2023/09/15 01:10:14;;;;;;;0.93;0.93;;;;;;;20.96;nan;61692.88;5094332;28;20224;-69
2023/09/15 01:12:40;;;;;;;1.33;1.23;;;;;;;21.10;nan;61911.41;5101893;28;20296;-69
2023/09/15 01:15:05;;;;;;;1.23;1.23;;;;;;;20.85;nan;61867.41;5101139;28;20291;-69
2023/09/15 01:17:49;;;;;;;1.73;1.20;;;;;;;20.85;nan;61703.22;5104505;28;20193;-69
2023/09/15 01:20:38;;;;;;;0.82;0.82;;;;;;;20.82;nan;61721.16;5110896;28;20176;-69
2023/09/15 01:23:36;;;;;;;0.93;0.93;;;;;;;20.77;nan;61842.72;5074887;28;20228;-68
2023/09/15 01:26:37;;;;;;;0.70;0.70;;;;;;;20.67;nan;61743.06;5095536;28;20241;-69
2023/09/15 01:29:26;;;;;;;0.65;0.65;;;;;;;20.65;nan;61827.06;5012754;28;20226;-69
2023/09/15 01:31:54;;;;;;;0.68;0.68;;;;;;;20.45;nan;61838.09;5110499;28;20196;-69
2023/09/15 01:34:19;;;;;;;1.05;1.02;;;;;;;20.32;nan;61651.47;5100742;28;20636;-69
2023/09/15 01:36:44;;;;;;;0.90;0.90;;;;;;;20.28;nan;61679.19;5101164;28;20176;-69
2023/09/15 01:39:10;;;;;;;0.80;0.80;;;;;;;20.25;nan;61753.06;5106340;28;20173;-69
2023/09/15 01:41:36;;;;;;;1.27;1.17;;;;;;;20.28;nan;61642.88;5094785;28;20169;-69
2023/09/15 01:44:01;;;;;;;0.80;0.80;;;;;;;20.19;nan;61642.47;5108694;28;20176;-68
2023/09/15 01:46:28;;;;;;;0.88;0.88;;;;;;;20.31;nan;61653.50;5115334;28;20153;-68
2023/09/15 01:48:56;;;;;;;2.25;1.85;;;;;;;20.19;nan;61632.69;5096189;28;20188;-69
2023/09/15 01:51:22;;;;;;;1.20;1.15;;;;;;;20.28;nan;61766.84;5107366;28;20177;-69
2023/09/15 01:53:51;;;;;;;0.90;0.90;;;;;;;20.26;nan;61686.72;5099260;28;20209;-69
2023/09/15 01:56:17;;;;;;;1.13;1.05;;;;;;;20.21;nan;61764.09;5094831;28;20154;-69
2023/09/15 01:58:42;;;;;;;1.35;1.25;;;;;;;20.00;nan;61746.00;5114508;28;20200;-69
2023/09/15 02:01:08;;;;;;;1.05;1.00;;;;;;;19.97;nan;61732.25;5114680;28;20169;-69
2023/09/15 02:03:33;;;;;;;0.68;0.68;;;;;;;19.82;nan;61616.69;5114863;28;20172;-69
2023/09/15 02:06:03;;;;;;;0.63;0.63;;;;;;;19.83;nan;61753.22;5114787;28;20176;-69
2023/09/15 02:08:28;;;;;;;0.82;0.82;;;;;;;19.70;nan;61781.94;5114803;28;20183;-69
2023/09/15 02:10:54;;;;;;;2.63;1.70;;;;;;;19.93;nan;61647.28;5114944;28;20220;-68
2023/09/15 02:13:19;;;;;;;1.02;1.02;;;;;;;19.76;nan;61586.53;5113707;28;20227;-69
2023/09/15 02:15:45;;;;;;;0.68;0.68;;;;;;;19.85;nan;61620.63;5114561;28;20926;-68
2023/09/15 02:18:11;;;;;;;7.90;2.63;;;;;;;19.65;nan;61727.59;5114593;28;20198;-69
2023/09/15 02:20:36;;;;;;;1.48;1.38;;;;;;;19.87;nan;61637.34;5114636;28;20172;-68
2023/09/15 02:23:03;;;;;;;1.02;1.02;;;;;;;19.78;nan;61622.53;5115269;28;20172;-68
2023/09/15 02:25:30;;;;;;;14.98;1.33;;;;;;;19.72;nan;61781.63;5117467;28;20195;-69
2023/09/15 02:27:57;;;;;;;1.10;1.00;;;;;;;19.53;nan;61491.09;5116119;28;20176;-68
2023/09/15 02:30:22;;;;;;;0.80;0.80;;;;;;;19.68;nan;61606.00;5118891;28;20196;-67
2023/09/15 02:32:47;;;;;;;0.63;0.63;;;;;;;19.54;nan;61738.44;5118352;28;20211;-68
2023/09/15 02:35:13;;;;;;;2.55;1.10;;;;;;;19.74;nan;61618.56;5102287;28;20189;-69
2023/09/15 02:37:38;;;;;;;0.75;0.75;;;;;;;19.74;nan;61877.25;5092991;28;20648;-69
2023/09/15 02:40:06;;;;;;;0.68;0.68;;;;;;;19.52;nan;61538.63;5100516;28;20175;-69
2023/09/15 02:42:33;;;;;;;0.80;0.80;;;;;;;;;;5093013;28;20205;-69
2023/09/15 02:44:58;;;;;;;1.30;1.25;;;;;;;19.58;nan;61716.47;5108990;28;20172;-68
2023/09/15 02:47:24;;;;;;;0.60;0.60;;;;;;;19.60;nan;61565.84;5092917;28;20555;-70
2023/09/15 02:49:49;;;;;;;0.85;0.80;;;;;;;19.41;nan;61557.81;5099771;28;20542;-69
2023/09/15 02:52:15;;;;;;;0.88;0.88;;;;;;;19.36;nan;61599.38;5095648;28;20207;-69
2023/09/15 02:54:40;;;;;;;0.55;0.55;;;;;;;19.53;nan;61568.28;5096955;28;20173;-69
2023/09/15 02:57:05;;;;;;;1.00;1.00;;;;;;;19.30;nan;61595.16;5111205;28;20219;-69
2023/09/15 02:59:31;;;;;;;1.38;1.20;;;;;;;19.30;nan;61667.69;5092640;28;20185;-68
2023/09/15 03:01:56;;;;;;;0.90;0.90;;;;;;;19.31;nan;61554.84;5100092;28;20176;-69
2023/09/15 03:04:22;;;;;;;0.80;0.80;;;;;;;19.34;nan;61439.06;5097089;28;20265;-69
2023/09/15 03:06:47;;;;;;;0.70;0.70;;;;;;;19.51;nan;61525.13;5106931;28;20188;-69
2023/09/15 03:09:13;;;;;;;0.75;0.75;;;;;;;19.26;nan;61447.59;5092948;28;20192;-68
2023/09/15 03:11:38;;;;;;;0.95;0.95;;;;;;;19.22;nan;61428.09;5092454;28;20320;-69
2023/09/15 03:14:04;;;;;;;0.70;0.70;;;;;;;19.05;nan;61561.63;5093777;28;20217;-68
2023/09/15 03:16:29;;;;;;;0.77;0.77;;;;;;;19.17;nan;61528.63;5098528;28;20169;-69
2023/09/15 03:18:55;;;;;;;1.17;1.17;;;;;;;18.82;nan;61628.81;5077169;28;20542;-69
2023/09/15 03:21:20;;;;;;;0.60;0.60;;;;;;;18.83;nan;61490.69;5077252;28;20661;-69
2023/09/15 03:23:48;;;;;;;0.60;0.60;;;;;;;18.96;nan;61670.53;5099710;28;20263;-69
2023/09/15 03:26:13;;;;;;;0.68;0.68;;;;;;;18.76;nan;61643.25;5108472;28;20249;-69
2023/09/15 03:28:39;;;;;;;1.33;1.23;;;;;;;18.90;nan;61503.25;5091437;28;20711;-69
2023/09/15 03:31:04;;;;;;;1.65;1.23;;;;;;;18.90;nan;61534.31;5095365;28;20187;-69
2023/09/15 03:33:30;;;;;;;0.90;0.90;;;;;;;18.85;nan;61438.03;5097919;28;20319;-69
2023/09/15 03:35:56;;;;;;;1.05;1.05;;;;;;;18.68;nan;61473.16;5099481;28;20181;-69
2023/09/15 03:38:22;;;;;;;0.73;0.73;;;;;;;18.84;nan;61491.25;5091843;28;20215;-69
2023/09/15 03:40:47;;;;;;;1.00;1.00;;;;;;;18.69;nan;61467.09;5107785;28;20188;-69
2023/09/15 03:43:13;;;;;;;0.75;0.75;;;;;;;18.77;nan;61452.88;5094736;28;20177;-68
2023/09/15 03:45:38;;;;;;;0.75;0.75;;;;;;;18.70;nan;61429.41;5095079;28;20166;-68
2023/09/15 03:48:04;;;;;;;0.95;0.95;;;;;;;18.70;nan;61465.63;5112847;28;20256;-68
2023/09/15 03:50:31;;;;;;;1.25;1.15;;;;;;;18.89;nan;61533.16;5094534;28;20632;-69
2023/09/15 03:52:57;;;;;;;1.58;1.48;;;;;;;18.79;nan;61481.00;5093228;28;20213;-69
2023/09/15 03:55:22;;;;;;;1.00;1.00;;;;;;;18.58;nan;61475.34;5103820;28;20189;-69
2023/09/15 03:57:47;;;;;;;1.23;1.23;;;;;;;18.59;nan;61460.41;5098354;28;20185;-68
2023/09/15 04:00:17;;;;;;;1.15;1.15;;;;;;;18.56;nan;61454.41;5091627;28;20193;-69
2023/09/15 04:02:43;;;;;;;1.42;1.00;;;;;;;18.45;nan;61533.06;5098453;28;20185;-68
2023/09/15 04:05:10;;;;;;;1.00;1.00;;;;;;;18.24;nan;61512.44;5093776;28;20272;-68
2023/09/15 04:07:37;;;;;;;0.70;0.70;;;;;;;18.20;nan;61523.41;5104942;28;20185;-69
2023/09/15 04:10:03;;;;;;;5.57;1.52;;;;;;;18.36;nan;61711.69;5090120;28;20667;-68
2023/09/15 04:12:30;;;;;;;1.23;1.23;;;;;;;18.15;nan;61393.63;5109625;27;20235;-68
2023/09/15 04:14:55;;;;;;;3.13;2.08;;;;;;;18.12;nan;61394.84;5090624;28;20178;-69
2023/09/15 04:17:21;;;;;;;1.02;1.02;;;;;;;18.15;nan;61418.94;5081053;28;20192;-68
2023/09/15 04:19:46;;;;;;;2.00;1.83;;;;;;;18.23;nan;61427.97;5091344;28;20173;-69
2023/09/15 04:22:12;;;;;;;0.90;0.90;;;;;;;18.23;nan;61480.25;5096503;28;20181;-68
2023/09/15 04:24:37;;;;;;;0.90;0.90;;;;;;;18.25;nan;61446.31;5089963;28;20540;-69
2023/09/15 04:27:03;;;;;;;1.83;1.42;;;;;;;18.28;nan;61452.31;5095594;28;20188;-68
2023/09/15 04:29:28;;;;;;;1.13;1.13;;;;;;;18.24;nan;61644.31;5104313;28;20212;-69
2023/09/15 04:31:54;;;;;;;0.95;0.95;;;;;;;18.35;nan;61480.91;5091719;28;20212;-68
2023/09/15 04:34:19;;;;;;;20.00;2.97;;;;;;;18.20;nan;61404.47;5103905;28;20204;-69
2023/09/15 04:36:44;;;;;;;1.20;1.10;;;;;;;18.41;nan;61438.53;5093001;28;20177;-68
2023/09/15 04:39:10;;;;;;;2.20;1.42;;;;;;;18.58;nan;61451.50;5112087;28;20215;-70
2023/09/15 04:41:36;;;;;;;0.73;0.73;;;;;;;18.70;nan;61457.88;5111782;28;20157;-69
2023/09/15 04:44:01;;;;;;;0.80;0.80;;;;;;;18.80;nan;61735.25;5111768;28;20173;-70
2023/09/15 04:46:26;;;;;;;0.90;0.90;;;;;;;19.03;nan;61567.16;5111641;28;20329;-68
2023/09/15 04:48:52;;;;;;;0.93;0.93;;;;;;;19.03;nan;61584.72;5111490;28;20192;-68
2023/09/15 04:51:17;;;;;;;0.65;0.65;;;;;;;19.06;nan;61645.66;5093451;28;20260;-69
2023/09/15 04:53:43;;;;;;;1.08;1.05;;;;;;;19.04;nan;61503.56;5111524;28;20204;-68
2023/09/15 04:56:08;;;;;;;1.58;1.23;;;;;;;19.17;nan;61500.13;5093982;28;20205;-67
2023/09/15 04:58:34;;;;;;;1.13;1.02;;;;;;;19.11;nan;61650.75;5104299;28;20216;-67
2023/09/15 05:01:00;;;;;;;0.93;0.93;;;;;;;19.22;nan;61632.72;5095727;28;20178;-68
2023/09/15 05:03:26;;;;;;;1.02;1.02;;;;;;;19.52;nan;61728.38;5091477;28;20613;-69
2023/09/15 05:05:51;;;;;;;1.77;1.38;;;;;;;19.63;nan;61553.69;5111262;28;20678;-69
2023/09/15 05:08:18;;;;;;;0.75;0.75;;;;;;;19.64;nan;61712.94;5110580;28;20268;-68
2023/09/15 05:10:47;;;;;;;1.20;1.20;;;;;;;19.94;nan;61720.47;5111647;28;20597;-68
2023/09/15 05:13:12;;;;;;;2.92;1.70;;;;;;;20.23;nan;61668.34;5111490;28;20204;-68
2023/09/15 05:15:38;;;;;;;1.13;1.13;;;;;;;20.43;nan;61793.72;5111859;28;20233;-68
2023/09/15 05:18:03;;;;;;;0.90;0.90;;;;;;;20.72;nan;61709.81;5111174;28;20169;-69
2023/09/15 05:20:29;;;;;;;0.50;0.50;;;;;;;20.87;nan;61713.84;5092093;28;20178;-69
2023/09/15 05:22:54;;;;;;;0.90;0.90;;;;;;;20.68;nan;61830.47;5091244;28;20158;-69
2023/09/15 05:25:19;;;;;;;0.60;0.60;;;;;;;20.92;nan;61713.75;5090987;28;20177;-69
2023/09/15 05:27:45;;;;;;;1.05;1.00;;;;;;;21.12;nan;61744.22;5090576;28;20169;-69
2023/09/15 05:30:11;;;;;;;1.42;1.35;;;;;;;21.04;nan;61873.41;5089828;28;20472;-69
2023/09/15 05:32:36;;;;;;;0.70;0.70;;;;;;;20.38;nan;61799.00;5090404;28;20215;-70
2023/09/15 05:35:02;;;;;;;0.85;0.85;;;;;;;20.63;nan;61988.38;5090926;28;20308;-69
2023/09/15 05:37:27;;;;;;;1.42;1.33;;;;;;;20.63;nan;61783.25;5090186;28;21029;-70
2023/09/15 05:39:53;;;;;;;2.92;0.93;;;;;;;20.82;nan;61819.28;5090357;28;20207;-70
2023/09/15 05:42:18;;;;;;;1.05;1.05;;;;;;;20.96;nan;61851.34;5090568;28;20170;-70
2023/09/15 05:44:43;;;;;;;0.98;0.98;;;;;;;21.09;nan;61740.81;5090377;28;20210;-70
2023/09/15 05:47:09;;;;;;;0.98;0.98;;;;;;;21.14;nan;61931.00;5090389;28;20201;-70
2023/09/15 05:49:35;;;;;;;2.45;2.22;;;;;;;21.22;nan;61815.38;5093285;28;20172;-70
2023/09/15 05:52:00;;;;;;;1.38;1.33;;;;;;;21.02;nan;61715.28;5093732;28;20170;-69
2023/09/15 05:54:26;;;;;;;2.75;1.70;;;;;;;21.17;nan;61903.25;5093672;28;20189;-69
2023/09/15 05:56:52;;;;;;;1.52;1.45;;;;;;;21.23;nan;61759.31;5093935;28;20181;-69
2023/09/15 05:59:17;;;;;;;0.73;0.73;;;;;;;21.58;nan;61838.06;5093528;28;20223;-69
2023/09/15 06:01:46;;;;;;;1.05;1.05;;;;;;;21.65;nan;61777.81;5093278;28;20196;-68
2023/09/15 06:04:15;;;;;;;2.65;1.00;;;;;;;21.98;nan;62059.88;5075176;28;20563;-69
2023/09/15 06:06:41;;;;;;;0.90;0.90;;;;;;;21.94;nan;61979.88;5091968;28;20231;-69
2023/09/15 06:09:06;;;;;;;1.05;1.05;;;;;;;22.29;nan;61844.69;5103787;28;20173;-69
2023/09/15 06:11:31;;;;;;;3.45;1.40;;;;;;;22.51;nan;61939.44;5100149;28;20213;-69
2023/09/15 06:13:57;;;;;;;2.83;1.77;;;;;;;22.84;nan;62031.16;5093489;28;20201;-69
2023/09/15 06:16:22;;;;;;;1.90;1.73;;;;;;;23.03;nan;62119.97;5110804;28;20540;-69
2023/09/15 06:18:47;;;;;;;1.63;1.52;;;;;;;23.14;nan;62239.97;5093077;28;20177;-69
2023/09/15 06:21:14;;;;;;;2.83;1.77;;;;;;;22.88;nan;62113.88;5093000;28;20609;-69
2023/09/15 06:23:39;;;;;;;1.05;1.05;;;;;;;22.95;nan;62014.41;5092942;28;20299;-69
2023/09/15 06:26:04;;;;;;;1.55;1.45;;;;;;;19.96;nan;63528.28;5092853;28;20154;-69
2023/09/15 06:28:30;;;;;;;0.95;0.95;;;;;;;23.28;nan;62036.34;5093003;28;20648;-69
2023/09/15 06:30:55;;;;;;;1.25;1.15;;;;;;;23.46;nan;62054.22;5092692;28;20746;-67
2023/09/15 06:33:21;;;;;;;2.45;1.83;;;;;;;23.59;nan;62048.16;5093254;28;20193;-69
2023/09/15 06:35:47;;;;;;;1.45;1.35;;;;;;;23.88;nan;62135.41;5092933;28;20523;-69
2023/09/15 06:38:12;;;;;;;1.17;1.10;;;;;;;23.36;nan;62157.56;5092425;28;20184;-70
2023/09/15 06:40:38;;;;;;;1.90;1.80;;;;;;;23.92;nan;62259.47;5092670;28;20173;-69
2023/09/15 06:43:06;;;;;;;0.98;0.98;;;;;;;23.89;nan;62122.94;5092962;28;20176;-70
2023/09/15 06:45:32;;;;;;;1.40;1.30;;;;;;;24.08;nan;62147.19;5092888;28;20169;-70
2023/09/15 06:47:59;;;;;;;1.08;1.08;;;;;;;24.12;nan;62147.09;5092747;28;20591;-70
2023/09/15 06:50:24;;;;;;;1.63;1.10;;;;;;;24.19;nan;62121.13;5092655;28;20161;-70
2023/09/15 06:52:49;;;;;;;0.85;0.82;;;;;;;24.06;nan;62101.09;5092182;28;20212;-71
2023/09/15 06:55:15;;;;;;;0.82;0.82;;;;;;;24.24;nan;62170.06;5092016;28;20181;-70
2023/09/15 06:57:40;;;;;;;0.73;0.73;;;;;;;24.34;nan;62163.19;5090067;28;20181;-71
2023/09/15 07:00:07;;;;;;;1.45;1.35;;;;;;;24.75;nan;62243.31;5101207;28;20199;-69
2023/09/15 07:02:32;;;;;;;3.95;2.15;;;;;;;24.58;nan;62227.69;5101109;28;20181;-70
2023/09/15 07:04:57;;;;;;;3.00;1.75;;;;;;;24.57;nan;62218.72;5092712;28;20460;-69
2023/09/15 07:07:23;;;;;;;1.92;1.75;;;;;;;24.69;nan;62330.59;5108724;28;20701;-68
2023/09/15 07:09:48;;;;;;;1.00;0.90;;;;;;;24.88;nan;62188.16;5101012;28;20189;-69
2023/09/15 07:12:14;;;;;;;1.45;1.35;;;;;;;25.03;nan;62296.22;5105915;28;20544;-69
2023/09/15 07:14:39;;;;;;;0.93;0.93;;;;;;;24.81;nan;62237.69;5096592;28;20185;-69
2023/09/15 07:17:05;;;;;;;2.08;1.88;;;;;;;24.99;nan;62349.19;5092536;28;20166;-70
2023/09/15 07:19:30;;;;;;;1.63;1.52;;;;;;;25.04;nan;62287.47;5112631;28;20161;-69
2023/09/15 07:21:56;;;;;;;0.52;0.52;;;;;;;25.02;nan;62383.97;5093867;28;20261;-70
2023/09/15 07:24:21;;;;;;;0.85;0.85;;;;;;;25.00;nan;62245.72;5111878;28;20213;-69
2023/09/15 07:26:47;;;;;;;1.58;1.48;;;;;;;25.14;nan;62316.63;5112072;28;20641;-70
2023/09/15 07:29:13;;;;;;;1.00;1.00;;;;;;;25.19;nan;62337.44;5112203;28;20571;-70
2023/09/15 07:31:41;;;;;;;0.80;0.80;;;;;;;25.41;nan;62441.66;5112053;28;20172;-69
2023/09/15 07:34:07;;;;;;;1.15;0.98;;;;;;;25.51;nan;62390.25;5112179;28;20268;-69
2023/09/15 07:36:32;;;;;;;3.28;0.85;;;;;;;25.56;nan;62479.19;5112348;28;20330;-70
2023/09/15 07:38:58;;;;;;;1.90;1.80;;;;;;;25.62;nan;62273.44;5112251;28;20541;-70
2023/09/15 07:41:24;;;;;;;2.75;1.95;;;;;;;26.05;nan;62350.72;5112384;28;20245;-70
2023/09/15 07:43:50;;;;;;;1.48;1.38;;;;;;;25.75;nan;62560.56;5093877;28;20176;-70
2023/09/15 07:46:15;;;;;;;1.35;1.25;;;;;;;26.09;nan;62412.94;5112304;28;20287;-70
2023/09/15 07:48:43;;;;;;;0.95;0.95;;;;;;;26.42;nan;62502.50;5112239;28;20225;-70
2023/09/15 07:51:11;;;;;;;0.77;0.77;;;;;;;26.17;nan;62532.13;5111748;28;20612;-70
2023/09/15 07:53:37;;;;;;;1.13;1.13;;;;;;;26.03;nan;62524.53;5111608;28;20647;-70
2023/09/15 07:56:02;;;;;;;1.35;1.25;;;;;;;26.48;nan;62520.44;5112307;28;20255;-70
2023/09/15 07:58:28;;;;;;;0.80;0.80;;;;;;;26.82;nan;62446.53;5111496;28;20168;-71
2023/09/15 08:00:54;;;;;;;1.77;1.40;;;;;;;26.49;nan;62542.56;5112041;28;20165;-70
2023/09/15 08:03:19;;;;;;;0.93;0.93;;;;;;;26.62;nan;62496.53;5111902;28;20236;-70
2023/09/15 08:05:45;;;;;;;1.38;1.27;;;;;;;26.49;nan;62477.00;5111411;28;20639;-70
2023/09/15 08:08:11;;;;;;;2.30;2.10;;;;;;;26.69;nan;62450.03;5111779;28;20168;-70
2023/09/15 08:10:36;;;;;;;1.88;1.15;;;;;;;26.94;nan;62506.34;5110732;28;20227;-70
2023/09/15 08:13:01;;;;;;;1.05;1.05;;;;;;;27.04;nan;62633.25;5111277;28;20188;-69
2023/09/15 08:15:27;;;;;;;0.77;0.77;;;;;;;26.97;nan;62499.84;5111514;28;20169;-70
2023/09/15 08:17:53;;;;;;;0.82;0.82;;;;;;;27.11;nan;62499.53;5112119;28;20632;-70
2023/09/15 08:20:19;;;;;;;2.05;1.33;;;;;;;27.25;nan;62631.63;5111414;28;20181;-69
2023/09/15 08:22:45;;;;;;;1.25;1.17;;;;;;;27.47;nan;62624.72;5111194;28;20210;-68
2023/09/15 08:25:14;;;;;;;4.32;1.85;;;;;;;27.67;nan;62618.19;5093114;28;20218;-69
2023/09/15 08:27:40;;;;;;;1.77;1.35;;;;;;;27.89;nan;62803.06;5093162;28;20260;-68
2023/09/15 08:30:08;;;;;;;0.55;0.55;;;;;;;27.81;nan;62626.34;5089909;28;20619;-69
2023/09/15 08:32:34;;;;;;;1.48;1.38;;;;;;;28.10;nan;62649.06;5117078;27;20615;-69
2023/09/15 08:35:00;;;;;;;1.83;1.20;;;;;;;28.10;nan;62754.19;5097818;28;20177;-69
2023/09/15 08:37:25;;;;;;;0.80;0.80;;;;;;;28.45;nan;62764.25;5091064;28;20539;-68
2023/09/15 08:39:50;;;;;;;0.82;0.82;;;;;;;28.48;nan;62701.94;5091045;28;20225;-68
2023/09/15 08:42:22;;;;;;;1.33;1.23;;;;;;;28.63;nan;62718.53;5090957;28;20263;-69
2023/09/15 08:44:49;;;;;;;1.10;1.00;;;;;;;28.75;nan;62892.81;5089874;28;20156;-68
2023/09/15 08:47:15;;;;;;;1.10;0.95;;;;;;;28.78;nan;62746.28;5091304;28;20298;-68
2023/09/15 08:49:43;;;;;;;0.80;0.80;;;;;;;28.85;nan;62739.09;5090837;28;20173;-68
2023/09/15 08:52:09;;;;;;;1.17;1.10;;;;;;;28.97;nan;63005.53;5090932;28;20589;-68
2023/09/15 08:54:34;;;;;;;1.85;1.65;;;;;;;29.29;nan;62886.38;5089907;28;20206;-69
2023/09/15 08:57:01;;;;;;;0.82;0.82;;;;;;;28.35;nan;62823.75;5091462;28;20173;-68
2023/09/15 08:59:27;;;;;;;0.90;0.90;;;;;;;29.57;nan;62978.56;5091354;28;20180;-69
2023/09/15 09:01:53;;;;;;;2.50;1.20;;;;;;;29.79;nan;62919.50;5090959;28;20187;-68
2023/09/15 09:04:18;;;;;;;1.95;1.13;;;;;;;29.92;nan;62936.53;5090970;28;20181;-69
2023/09/15 09:06:45;;;;;;;1.10;1.05;;;;;;;29.98;nan;62974.47;5091268;28;20200;-68
2023/09/15 09:09:13;;;;;;;1.73;1.52;;;;;;;29.90;nan;62904.66;5091064;28;20172;-69
2023/09/15 09:11:39;;;;;;;0.85;0.85;;;;;;;30.16;nan;62913.41;5090996;28;20345;-69
2023/09/15 09:14:11;;;;;;;1.20;1.00;;;;;;;30.44;nan;63027.34;5090404;28;20221;-69
2023/09/15 09:16:42;;;;;;;1.60;1.50;;;;;;;30.33;nan;62945.56;5089626;28;20169;-69
2023/09/15 09:19:12;;;;;;;0.85;0.85;;;;;;;30.65;nan;63058.88;5089509;28;20165;-69
2023/09/15 09:21:38;;;;;;;1.35;1.25;;;;;;;30.63;nan;63056.56;5091451;28;20177;-70
2023/09/15 09:24:05;;;;;;;1.80;1.25;;;;;;;30.57;nan;63087.16;5094756;28;20179;-69
2023/09/15 09:26:30;;;;;;;0.95;0.95;;;;;;;30.75;nan;63024.91;5095125;28;20160;-69
2023/09/15 09:28:57;;;;;;;0.60;0.60;;;;;;;30.07;nan;62995.94;5094640;28;20169;-68
2023/09/15 09:31:25;;;;;;;2.00;1.80;;;;;;;30.10;nan;63043.66;5094782;28;20264;-69
2023/09/15 09:33:52;;;;;;;0.70;0.70;;;;;;;30.14;nan;63051.47;5094838;28;20656;-69
2023/09/15 09:36:18;;;;;;;0.90;0.90;;;;;;;30.10;nan;63033.69;5094780;28;20238;-69
2023/09/15 09:38:46;;;;;;;0.70;0.70;;;;;;;29.82;nan;62951.41;5094878;28;20180;-70
2023/09/15 09:41:12;;;;;;;2.17;1.38;;;;;;;29.93;nan;62969.31;5094508;28;20654;-68
2023/09/15 09:43:46;;;;;;;0.70;0.70;;;;;;;30.36;nan;63010.25;5094473;28;20191;-69
2023/09/15 09:46:13;;;;;;;1.00;1.00;;;;;;;30.07;nan;62932.09;5097064;28;20260;-69
2023/09/15 09:48:39;;;;;;;1.65;0.98;;;;;;;29.81;nan;63006.16;5094979;28;20160;-69
2023/09/15 09:51:07;;;;;;;0.82;0.80;;;;;;;29.70;nan;62895.44;5095203;28;20267;-69
2023/09/15 09:53:34;;;;;;;0.85;0.73;;;;;;;30.07;nan;62995.38;5094733;28;20671;-70
2023/09/15 09:56:05;;;;;;;0.73;0.73;;;;;;;30.23;nan;63011.72;5094737;28;20198;-70
2023/09/15 09:58:38;;;;;;;0.80;0.80;;;;;;;30.44;nan;63055.78;5093234;28;20211;-69
2023/09/15 10:01:06;;;;;;;1.27;1.05;;;;;;;30.63;nan;63072.97;5094575;28;20161;-68
2023/09/15 10:03:34;;;;;;;1.58;1.45;;;;;;;30.98;nan;63180.75;5094532;28;20278;-69
2023/09/15 10:06:00;;;;;;;0.77;0.77;;;;;;;30.91;nan;63067.63;5094222;28;20259;-69
2023/09/15 10:08:27;;;;;;;0.70;0.70;;;;;;;31.20;nan;63110.44;5094539;28;20217;-69
2023/09/15 10:10:53;;;;;;;2.63;1.95;;;;;;;31.28;nan;63109.63;5094326;28;20664;-67
2023/09/15 10:13:19;;;;;;;0.82;0.82;;;;;;;31.04;nan;63016.56;5094804;28;20620;-69
2023/09/15 10:15:45;;;;;;;2.45;1.88;;;;;;;30.60;nan;63153.41;5094416;28;20707;-68
2023/09/15 10:18:14;;;;;;;3.83;1.63;;;;;;;30.36;nan;63121.03;5094415;28;20252;-69
2023/09/15 10:20:42;;;;;;;1.23;0.95;;;;;;;30.27;nan;63105.41;5094276;28;20711;-69
2023/09/15 10:23:08;;;;;;;1.15;0.93;;;;;;;30.51;nan;63116.66;5094117;28;20200;-68
2023/09/15 10:25:45;;;;;;;1.17;0.77;;;;;;;30.82;nan;63162.31;5093666;28;20188;-68
2023/09/15 10:28:11;;;;;;;1.52;1.08;;;;;;;30.80;nan;63067.63;5093156;28;20741;-68
2023/09/15 10:30:37;;;;;;;2.05;1.85;;;;;;;;;;5092532;28;20188;-70
2023/09/15 10:33:04;;;;;;;1.33;1.05;;;;;;;30.23;nan;63001.16;5092696;28;20672;-68
2023/09/15 10:35:32;;;;;;;1.60;1.50;;;;;;;30.13;nan;63149.94;5093171;28;20165;-69
2023/09/15 10:38:02;;;;;;;1.08;1.00;;;;;;;30.29;nan;62994.28;5092789;28;20173;-68
2023/09/15 10:40:48;;;;;;;1.35;1.25;;;;;;;30.44;nan;63056.38;5092268;28;20180;-70
2023/09/15 10:43:17;;;;;;;1.65;1.50;;;;;;;30.43;nan;63121.16;5092643;28;20285;-69
2023/09/15 10:45:59;;;;;;;1.05;0.88;;;;;;;30.52;nan;63096.69;5093617;28;20157;-70
2023/09/15 10:48:40;;;;;;;1.52;1.17;;;;;;;30.18;nan;62926.25;5093239;28;20568;-69
2023/09/15 10:51:06;;;;;;;1.02;0.95;;;;;;;30.11;nan;62984.72;5093374;28;20176;-69
2023/09/15 10:53:43;;;;;;;2.08;1.90;;;;;;;30.08;nan;63057.75;5093205;28;20207;-69
2023/09/15 10:56:09;;;;;;;0.98;0.95;;;;;;;29.94;nan;63120.16;5093099;28;20649;-69
2023/09/15 10:58:35;;;;;;;0.88;0.88;;;;;;;29.88;nan;62931.34;5092971;28;20207;-69
2023/09/15 11:01:01;;;;;;;0.80;0.80;;;;;;;29.96;nan;63019.66;5092865;28;20175;-68
2023/09/15 11:03:28;;;;;;;1.95;1.27;;;;;;;29.74;nan;63155.66;5093361;28;20256;-68
2023/09/15 11:05:55;;;;;;;2.05;1.85;;;;;;;29.94;nan;63073.28;5092679;28;20258;-69
2023/09/15 11:08:22;;;;;;;1.63;1.35;;;;;;;30.08;nan;62991.81;5092950;28;20176;-68
2023/09/15 11:10:48;;;;;;;1.33;1.23;;;;;;;29.92;nan;62997.16;5093061;28;20229;-69
2023/09/15 11:13:13;;;;;;;1.35;1.25;;;;;;;29.83;nan;62947.81;5092633;28;20289;-69
2023/09/15 11:15:39;;;;;;;0.77;0.77;;;;;;;30.10;nan;62988.28;5092994;28;20643;-69
2023/09/15 11:18:04;;;;;;;1.83;1.55;;;;;;;30.34;nan;63042.22;5093048;28;20186;-69
2023/09/15 11:20:30;;;;;;;0.80;0.80;;;;;;;30.40;nan;63051.78;5092732;28;20256;-70
2023/09/15 11:22:56;;;;;;;1.55;1.08;;;;;;;30.43;nan;63112.69;5092542;28;20173;-71
2023/09/15 11:25:22;;;;;;;0.95;0.95;;;;;;;30.01;nan;62996.41;5092702;28;20157;-69
2023/09/15 11:27:49;;;;;;;0.90;0.90;;;;;;;30.00;nan;63122.38;5074210;28;20216;-71
2023/09/15 11:30:16;;;;;;;2.05;1.52;;;;;;;29.66;nan;63017.91;5092588;28;20184;-70
2023/09/15 11:32:41;;;;;;;1.15;0.95;;;;;;;29.62;nan;62996.91;5092154;28;20258;-70
2023/09/15 11:35:10;;;;;;;1.65;1.08;;;;;;;29.40;nan;62825.28;5092165;28;20539;-71
2023/09/15 11:37:36;;;;;;;0.50;0.50;;;;;;;29.39;nan;62973.69;5092441;28;20619;-71
2023/09/15 11:40:02;;;;;;;0.98;0.95;;;;;;;29.24;nan;62825.34;5092518;28;20200;-69
2023/09/15 11:42:27;;;;;;;0.98;0.98;;;;;;;29.31;nan;62965.09;5092040;28;20204;-69
2023/09/15 11:44:55;;;;;;;1.02;1.02;;;;;;;29.32;nan;62852.97;5092153;28;20255;-69
2023/09/15 11:47:21;;;;;;;1.05;1.00;;;;;;;29.58;nan;62898.06;5092341;28;20236;-70
2023/09/15 11:49:47;;;;;;;0.80;0.80;;;;;;;29.48;nan;62962.38;5092499;28;20175;-69